Aérodrome Morin - Védrines

LFDB · Tarn-et-Garonne, Languedoc-Roussillon-Midi-Pyrénées, France

METAR anciennes LFDB · Aéroport de Montauban

Tu vois ci-dessous les METAR des derniers jours. Sélectionne une année pour parcourir les METAR plus anciens, à partir de l'année 2007.

24 avril 2024

Temps Code Temps Temp. Vue Base cloud Vent METAR/SPECI
23:00
V
9 °C 10 km+ 5.400 ft 260° 260° 13 kt METAR LFBO 242100Z AUTO 26013KT 9999 FEW011/// SCT040/// BKN054/// //////TCU 09/08 Q1016 TEMPO 4000 -SHRA
23:00
V
9 °C 10 km+ 5.400 ft 260° 260° 13 kt METAR LFBO 242100Z AUTO 26013KT 9999 FEW011/// SCT040/// BKN054/// ///TCU 09/08 Q1016 TEMPO 4000 -SHRA
22:30
V
9 °C 10 km+ 8.600 ft 260° 260° 11 kt METAR LFBO 242030Z AUTO 26011KT 9999 FEW048 SCT054 OVC086 09/08 Q1016 TEMPO 4000 -SHRA BKN016 SCT025TCU OVC050
22:00
V
9 °C 10 km+ 5.000 ft 260° 260° 12 kt METAR LFBO 242000Z AUTO 26012KT 9999 FEW012 BKN050 BKN064 09/08 Q1016 TEMPO 4000 -SHRA BKN016 SCT025TCU OVC050
21:30
V
9 °C 10 km+ 5.200 ft 250° 250° 15 kt METAR LFBO 241930Z AUTO 25015KT 9999 -RADZ FEW044 OVC052 09/08 Q1016 TEMPO 4000 -SHRA BKN016 SCT025TCU OVC050
21:00
V
9 °C 10 km+ - 260° 260° 13 kt METAR LFBO 241900Z AUTO 26013KT CAVOK 09/07 Q1016 TEMPO 4000 -SHRA BKN016 SCT025TCU OVC050
20:30
V
10 °C 10 km+ 4.500 ft 260° 260° 13 kt METAR LFBO 241830Z AUTO 26013KT 9999 FEW038 BKN045 OVC054 10/08 Q1016 TEMPO 4000 -SHRA BKN016 SCT025TCU OVC050
20:00
V
10 °C 10 km+ 4.400 ft 250° 250° 15 kt METAR LFBO 241800Z AUTO 25015KT 9999 BKN044 OVC054 10/08 Q1016 TEMPO 4000 -SHRA BKN016 SCT025TCU OVC050
19:30
M
9 °C 10 km+ 2.700 ft 280° 280° 8 kt METAR LFBO 241730Z AUTO 28008KT 250V310 9999 FEW015 SCT022 BKN027 09/08 Q1016 TEMPO 4000 SHRA BECMG SCT035TCU BKN060
19:00
V
10 °C 8 km 4.300 ft 270° 270° 14 kt METAR LFBO 241700Z AUTO 27014KT 8000 RA FEW022/// SCT036/// BKN043/// //////TCU 10/08 Q1017 TEMPO 4000 SHRA
18:30
V
10 °C 10 km+ 4.100 ft 280° 280° 11 kt METAR LFBO 241630Z AUTO 28011KT 9999 OVC041/// ///TCU 10/07 Q1017 TEMPO 4000 SHRA
18:00
V
11 °C 10 km+ 4.700 ft 270° 270° 15 kt METAR LFBO 241600Z AUTO 27015KT 9999 FEW020 OVC047 11/06 Q1017 TEMPO 28018G28KT 4000 SHRA BECMG SCT035TCU BKN060
17:30
V
11 °C 10 km+ 3.200 ft 280° 280° 12 kt METAR LFBO 241530Z AUTO 28012KT 9999 SCT026 BKN032 BKN039 11/06 Q1017 TEMPO 28018G28KT 4000 SHRA BECMG SCT035TCU BKN060
17:00
V
10 °C 10 km+ 3.100 ft 290° 290° 10 kt METAR LFBO 241500Z AUTO 29010KT 9999 SCT024 BKN031 OVC038 10/07 Q1017 TEMPO 28018G28KT 4000 SHRA BECMG SCT035TCU BKN060
16:30
V
11 °C 10 km+ 3.700 ft 280° 280° 16 kt METAR LFBO 241430Z AUTO 28016KT 9999 FEW024 BKN037 BKN045 11/06 Q1017 TEMPO 28018G28KT 4000 SHRA BECMG SCT035TCU BKN060
16:00
V
11 °C 10 km+ 5.600 ft 280° 280° 15 kt METAR LFBO 241400Z AUTO 28015KT 9999 FEW020 SCT027 BKN056 11/06 Q1017 TEMPO 28018G28KT 4000 SHRA BECMG SCT035TCU BKN060
15:30
V
11 °C 10 km+ 3.500 ft 280° 280° 14 kt METAR LFBO 241330Z AUTO 28014KT 9999 SCT013 SCT030 BKN035 11/08 Q1018 TEMPO 28018G28KT 4000 SHRA BECMG SCT035TCU BKN060
15:00
V
10 °C 10 km+ 3.400 ft 290° 290° 14 kt METAR LFBO 241300Z AUTO 29014KT 9999 FEW011 SCT020 BKN034 10/08 Q1018 TEMPO 28018G28KT 4000 SHRA BECMG SCT035TCU BKN060
14:30
V
10 °C 10 km+ 3.600 ft 290° 290° 20 kt METAR LFBO 241230Z AUTO 29020KT 9999 -RA SCT029 OVC036 10/07 Q1018 TEMPO 28018G28KT 4000 SHRA BECMG SCT035TCU BKN060
14:00
V
12 °C 10 km+ 3.300 ft 280° 280° 17 kt METAR LFBO 241200Z AUTO 28017KT 9999 BKN033 BKN040 OVC046 12/04 Q1018 TEMPO 28018G28KT 4000 SHRA BECMG SCT035TCU BKN060
13:30
V
11 °C 10 km+ 3.800 ft 270° 270° 14 kt METAR LFBO 241130Z AUTO 27014KT 9999 OVC038 11/01 Q1018 TEMPO 28015G25KT SCT020TCU BKN040
13:00
V
11 °C 10 km+ 3.800 ft 270° 270° 16 kt METAR LFBO 241100Z AUTO 27016KT 9999 OVC038 11/00 Q1018 TEMPO 28015G25KT SCT020TCU BKN040
12:30
V
11 °C 10 km+ 4.200 ft 270° 270° 18 kt METAR LFBO 241030Z AUTO 27018KT 9999 FEW026 BKN042 OVC054 11/01 Q1019 TEMPO 28015G25KT SCT020TCU BKN040
12:00
V
10 °C 10 km+ 4.600 ft 280° 280° 15 kt METAR LFBO 241000Z AUTO 28015KT 9999 FEW036 BKN046 OVC052 10/01 Q1019 NOSIG
11:30
V
10 °C 10 km+ 5.600 ft 270° 270° 17 kt METAR LFBO 240930Z AUTO 27017KT 9999 FEW047 OVC056 10/02 Q1019 NOSIG
11:00
V
10 °C 10 km+ - 270° 270° 16 kt METAR LFBO 240900Z AUTO 27016KT CAVOK 10/02 Q1019 NOSIG
10:30
V
10 °C 10 km+ - 270° 270° 14 kt METAR LFBO 240830Z AUTO 27014KT CAVOK 10/01 Q1019 NOSIG
10:00
V
9 °C 10 km+ - 270° 270° 14 kt METAR LFBO 240800Z AUTO 27014KT CAVOK 09/01 Q1019 NOSIG
09:30
V
8 °C 10 km+ - 270° 270° 13 kt METAR LFBO 240730Z AUTO 27013KT CAVOK 08/M00 Q1020 NOSIG
09:00
V
8 °C 10 km+ - 260° 260° 11 kt METAR LFBO 240700Z AUTO 26011KT CAVOK 08/M00 Q1019 NOSIG
08:30
V
7 °C 10 km+ - 260° 260° 11 kt METAR LFBO 240630Z AUTO 26011KT CAVOK 07/M00 Q1020 NOSIG
08:00
V
7 °C 10 km+ - 260° 260° 13 kt METAR LFBO 240600Z AUTO 26013KT CAVOK 07/M00 Q1020 NOSIG
07:30
V
6 °C 10 km+ - 260° 260° 11 kt METAR LFBO 240530Z AUTO 26011KT CAVOK 06/M01 Q1020 NOSIG
07:00
V
6 °C 10 km+ - 260° 260° 11 kt METAR LFBO 240500Z AUTO 26011KT CAVOK 06/M01 Q1020 NOSIG
06:30
V
5 °C 10 km+ - 260° 260° 11 kt METAR LFBO 240430Z AUTO 26011KT CAVOK 05/M02 Q1020 NOSIG
06:00
V
5 °C 10 km+ - 270° 270° 9 kt METAR LFBO 240400Z AUTO 27009KT CAVOK 05/M02 Q1020 NOSIG
05:30
V
5 °C 10 km+ - 270° 270° 11 kt METAR LFBO 240330Z AUTO 27011KT CAVOK 05/M02 Q1020 NOSIG
05:00
V
4 °C 10 km+ - 270° 270° 9 kt METAR LFBO 240300Z AUTO 27009KT CAVOK 04/M02 Q1020 NOSIG
04:30
V
5 °C 10 km+ - 280° 280° 9 kt METAR LFBO 240230Z AUTO 28009KT CAVOK 05/M02 Q1020 NOSIG
04:00
V
5 °C 10 km+ - 280° 280° 9 kt METAR LFBO 240200Z AUTO 28009KT CAVOK 05/M02 Q1020 NOSIG
03:30
V
5 °C 10 km+ - 290° 290° 8 kt METAR LFBO 240130Z AUTO 29008KT CAVOK 05/M02 Q1020 NOSIG
03:00
V
5 °C 10 km+ - 290° 290° 8 kt METAR LFBO 240100Z AUTO 29008KT CAVOK 05/M02 Q1020 NOSIG
02:30
V
6 °C 10 km+ - 270° 270° 8 kt METAR LFBO 240030Z AUTO 27008KT CAVOK 06/M02 Q1020 NOSIG
02:00
V
6 °C 10 km+ - 290° 290° 8 kt METAR LFBO 240000Z AUTO 29008KT CAVOK 06/M02 Q1020 NOSIG
01:30
V
6 °C 10 km+ - 290° 290° 8 kt METAR LFBO 232330Z AUTO 29008KT CAVOK 06/M01 Q1020 NOSIG
01:00
V
7 °C 10 km+ - 310° 310° 7 kt METAR LFBO 232300Z AUTO 31007KT CAVOK 07/M01 Q1020 NOSIG
00:30
V
7 °C 10 km+ - 310° 310° 7 kt METAR LFBO 232230Z AUTO 31007KT CAVOK 07/M01 Q1020 NOSIG
00:00
V
7 °C 10 km+ - 310° 310° 8 kt METAR LFBO 232200Z AUTO 31008KT CAVOK 07/M02 Q1020 NOSIG

23 avril 2024

Temps Code Temps Temp. Vue Base cloud Vent METAR/SPECI
23:30
V
7 °C 10 km+ - 300° 300° 8 kt METAR LFBO 232130Z AUTO 30008KT CAVOK 07/M02 Q1020 NOSIG
23:00
V
8 °C 10 km+ - 310° 310° 7 kt METAR LFBO 232100Z AUTO 31007KT CAVOK 08/M02 Q1019 NOSIG
22:30
V
7 °C 10 km+ - 310° 310° 8 kt METAR LFBO 232030Z AUTO 31008KT 9999 FEW010 07/M02 Q1019 NOSIG
22:00
V
8 °C 10 km+ - 310° 310° 8 kt METAR LFBO 232000Z AUTO 31008KT CAVOK 08/M02 Q1019 NOSIG
21:30
V
9 °C 10 km+ - 320° 320° 8 kt METAR LFBO 231930Z AUTO 32008KT CAVOK 09/M02 Q1018 NOSIG
21:00
V
9 °C 10 km+ - 310° 310° 10 kt METAR LFBO 231900Z AUTO 31010KT CAVOK 09/M02 Q1018 NOSIG
20:30
V
11 °C 10 km+ - 310° 310° 10 kt METAR LFBO 231830Z AUTO 31010KT CAVOK 11/M02 Q1018 NOSIG
20:00
V
11 °C 10 km+ - 310° 310° 10 kt METAR LFBO 231800Z AUTO 31010KT CAVOK 11/M02 Q1017 NOSIG
19:30
V
12 °C 10 km+ - 310° 310° 11 kt METAR LFBO 231730Z AUTO 31011KT CAVOK 12/M02 Q1017 NOSIG
19:00
V
12 °C 10 km+ - 310° 310° 15 kt METAR LFBO 231700Z AUTO 31015KT 9999 FEW012 SCT100 12/M03 Q1017 TEMPO 31015G25KT
18:30
V
12 °C 10 km+ - 340° 340° 12 kt METAR LFBO 231630Z AUTO 34012KT 290V010 CAVOK 12/M03 Q1017 TEMPO 31015G25KT
18:00
V
13 °C 10 km+ - 330° 330° 16 kt METAR LFBO 231600Z AUTO 33016KT CAVOK 13/M03 Q1017 TEMPO 31015G25KT
17:30
V
13 °C 10 km+ - 300° 300° 14 kt METAR LFBO 231530Z AUTO 30014KT CAVOK 13/M02 Q1017 TEMPO 31015G25KT
17:00
V
13 °C 10 km+ - 300° 300° 16 kt METAR LFBO 231500Z AUTO 30016KT CAVOK 13/M01 Q1017 TEMPO 31015G25KT
16:30
V
12 °C 10 km+ - 320° 320° 16 kt METAR LFBO 231430Z AUTO 32016KT CAVOK 12/M03 Q1017 TEMPO 31015G25KT
16:00
V
13 °C 10 km+ - 310° 310° 12 kt METAR LFBO 231400Z AUTO 31012KT 270V350 CAVOK 13/M02 Q1017 TEMPO 31015G25KT
15:30
V
12 °C 10 km+ - 340° 340° 16 kt METAR LFBO 231330Z AUTO 34016KT 310V010 CAVOK 12/M02 Q1017 TEMPO 31015G25KT
15:00
V
13 °C 10 km+ - 320° 320° 12 - 23 kt METAR LFBO 231300Z AUTO 32012G23KT CAVOK 13/M02 Q1017 NOSIG
14:30
V
12 °C 10 km+ 10.000 ft 330° 330° 16 kt METAR LFBO 231230Z AUTO 33016KT 9999 FEW044/// SCT074/// BKN100/// ///TCU 12/M03 Q1017 TEMPO 31015G25KT BECMG NSC
14:00
V
12 °C 10 km+ - 320° 320° 13 kt METAR LFBO 231200Z AUTO 32013KT CAVOK 12/M03 Q1017 TEMPO 31015G25KT
13:30
V
10 °C 10 km+ 9.000 ft 340° 340° 15 kt METAR LFBO 231130Z AUTO 34015KT 310V020 9999 FEW037 SCT058 BKN090 10/M04 Q1018 TEMPO 31015G25KT
13:00
V
11 °C 10 km+ - 330° 330° 14 kt METAR LFBO 231100Z AUTO 33014KT 300V360 CAVOK 11/M01 Q1018 NOSIG
12:30
V
11 °C 10 km+ - 320° 320° 14 kt METAR LFBO 231030Z AUTO 32014KT CAVOK 11/M02 Q1018 NOSIG
12:00
V
11 °C 10 km+ - 330° 330° 15 kt METAR LFBO 231000Z AUTO 33015KT 310V010 CAVOK 11/M02 Q1018 BECMG 32005KT
11:30
V
11 °C 10 km+ - 320° 320° 12 kt METAR LFBO 230930Z AUTO 32012KT 300V020 9999 SCT048 SCT054 11/M01 Q1019 NOSIG
11:00
V
10 °C 10 km+ - 340° 340° 11 kt METAR LFBO 230900Z AUTO 34011KT 310V010 9999 FEW042 10/M01 Q1019 NOSIG
10:30
V
9 °C 10 km+ - 330° 330° 8 kt METAR LFBO 230830Z AUTO 33008KT 300V010 CAVOK 09/00 Q1019 NOSIG
10:00
V
8 °C 10 km+ - 330° 330° 10 kt METAR LFBO 230800Z AUTO 33010KT CAVOK 08/00 Q1019 NOSIG
09:30
V
7 °C 10 km+ - 330° 330° 8 kt METAR LFBO 230730Z AUTO 33008KT 300V360 CAVOK 07/M01 Q1019 NOSIG
09:00
V
6 °C 10 km+ - 320° 320° 8 kt METAR LFBO 230700Z AUTO 32008KT CAVOK 06/M01 Q1019 NOSIG
08:30
V
6 °C 10 km+ - 310° 310° 7 kt METAR LFBO 230630Z AUTO 31007KT CAVOK 06/M00 Q1019 NOSIG
08:00
V
5 °C 10 km+ - 320° 320° 6 kt METAR LFBO 230600Z AUTO 32006KT CAVOK 05/M01 Q1019 NOSIG
07:30
V
5 °C 10 km+ - 310° 310° 6 kt METAR LFBO 230530Z AUTO 31006KT CAVOK 05/M01 Q1019 NOSIG
07:00
V
4 °C 10 km+ - 320° 320° 5 kt METAR LFBO 230500Z AUTO 32005KT CAVOK 04/M01 Q1019 NOSIG
06:30
V
4 °C 10 km+ - 300° 300° 7 kt METAR LFBO 230430Z AUTO 30007KT CAVOK 04/M01 Q1019 NOSIG
06:00
V
3 °C 10 km+ - 300° 300° 6 kt METAR LFBO 230400Z AUTO 30006KT CAVOK 03/M02 Q1019 NOSIG
05:30
V
4 °C 10 km+ - 300° 300° 6 kt METAR LFBO 230330Z AUTO 30006KT CAVOK 04/M02 Q1019 NOSIG
05:00
V
4 °C 10 km+ - 320° 320° 5 kt METAR LFBO 230300Z AUTO 32005KT CAVOK 04/M02 Q1019 NOSIG
04:30
V
4 °C 10 km+ - 310° 310° 5 kt METAR LFBO 230230Z AUTO 31005KT CAVOK 04/M02 Q1019 NOSIG
04:00
V
4 °C 10 km+ - 300° 300° 7 kt METAR LFBO 230200Z AUTO 30007KT CAVOK 04/M02 Q1020 NOSIG
03:30
V
5 °C 10 km+ - 320° 320° 7 kt METAR LFBO 230130Z AUTO 32007KT CAVOK 05/M02 Q1020 NOSIG
03:00
V
6 °C 10 km+ - 310° 310° 8 kt METAR LFBO 230100Z AUTO 31008KT CAVOK 06/M02 Q1020 NOSIG
02:30
V
7 °C 10 km+ - 320° 320° 9 kt METAR LFBO 230030Z AUTO 32009KT CAVOK 07/M02 Q1020 NOSIG
02:00
V
7 °C 10 km+ - 320° 320° 8 kt METAR LFBO 230000Z AUTO 32008KT CAVOK 07/M02 Q1021 NOSIG
01:30
V
7 °C 10 km+ - 320° 320° 9 kt METAR LFBO 222330Z AUTO 32009KT CAVOK 07/M02 Q1021 NOSIG
01:00
V
7 °C 10 km+ - 310° 310° 9 kt METAR LFBO 222300Z AUTO 31009KT CAVOK 07/M02 Q1021 NOSIG
00:30
V
7 °C 10 km+ - 320° 320° 9 kt METAR LFBO 222230Z AUTO 32009KT CAVOK 07/M02 Q1021 NOSIG
00:00
V
8 °C 10 km+ - 320° 320° 7 kt METAR LFBO 222200Z AUTO 32007KT CAVOK 08/M02 Q1021 NOSIG

22 avril 2024

Temps Code Temps Temp. Vue Base cloud Vent METAR/SPECI
23:30
V
8 °C 10 km+ - 310° 310° 8 kt METAR LFBO 222130Z AUTO 31008KT CAVOK 08/M02 Q1021 NOSIG
23:00
V
8 °C 10 km+ - 310° 310° 7 kt METAR LFBO 222100Z AUTO 31007KT 270V330 CAVOK 08/M02 Q1021 NOSIG
22:30
V
8 °C 10 km+ - 300° 300° 7 kt METAR LFBO 222030Z AUTO 30007KT CAVOK 08/M02 Q1021 NOSIG
22:00
V
9 °C 10 km+ - 310° 310° 9 kt METAR LFBO 222000Z AUTO 31009KT CAVOK 09/M02 Q1021 NOSIG
21:30
V
10 °C 10 km+ 9.200 ft 310° 310° 10 kt METAR LFBO 221930Z AUTO 31010KT 9999 FEW007 BKN092 10/M02 Q1020 NOSIG
21:00
V
11 °C 10 km+ - 320° 320° 11 kt METAR LFBO 221900Z AUTO 32011KT CAVOK 11/M03 Q1020 NOSIG
20:30
V
11 °C 10 km+ - 320° 320° 12 kt METAR LFBO 221830Z AUTO 32012KT CAVOK 11/M03 Q1020 NOSIG
20:00
V
12 °C 10 km+ - 310° 310° 15 kt METAR LFBO 221800Z AUTO 31015KT CAVOK 12/M04 Q1020 NOSIG
19:30
V
12 °C 10 km+ - 320° 320° 14 kt METAR LFBO 221730Z AUTO 32014KT CAVOK 12/M03 Q1019 NOSIG
19:00
V
13 °C 10 km+ - 320° 320° 13 kt METAR LFBO 221700Z AUTO 32013KT CAVOK 13/M03 Q1019 TEMPO 33016G26KT
18:30
V
13 °C 10 km+ - 320° 320° 15 kt METAR LFBO 221630Z AUTO 32015KT CAVOK 13/M03 Q1019 TEMPO 33016G26KT
18:00
V
12 °C 10 km+ - 320° 320° 18 - 28 kt METAR LFBO 221600Z AUTO 32018G28KT 300V360 CAVOK 12/M04 Q1019 NOSIG
17:30
V
12 °C 10 km+ 9.200 ft 330° 330° 15 kt METAR LFBO 221530Z AUTO 33015KT 9999 FEW035 SCT066 BKN092 12/M03 Q1020 TEMPO 33016G26KT
17:00
V
12 °C 10 km+ - 320° 320° 17 kt METAR LFBO 221500Z AUTO 32017KT CAVOK 12/M04 Q1020 TEMPO 33016G26KT
16:30
V
13 °C 10 km+ - 320° 320° 17 kt METAR LFBO 221430Z AUTO 32017KT CAVOK 13/M03 Q1020 TEMPO 33016G26KT
16:00
V
12 °C 10 km+ - 330° 330° 15 kt METAR LFBO 221400Z AUTO 33015KT CAVOK 12/M03 Q1020 TEMPO 33016G26KT
15:30
V
12 °C 10 km+ - 320° 320° 15 kt METAR LFBO 221330Z AUTO 32015KT CAVOK 12/M03 Q1020 TEMPO 33016G26KT
15:00
V
12 °C 10 km+ - 330° 330° 15 kt METAR LFBO 221300Z AUTO 33015KT CAVOK 12/M03 Q1020 TEMPO 33016G26KT
14:30
V
13 °C 10 km+ - 320° 320° 18 kt METAR LFBO 221230Z AUTO 32018KT CAVOK 13/M03 Q1021 TEMPO 33016G26KT
14:00
V
13 °C 10 km+ - 310° 310° 15 kt METAR LFBO 221200Z AUTO 31015KT 290V360 CAVOK 13/M02 Q1021 TEMPO 33016G26KT
13:30
V
12 °C 10 km+ - 330° 330° 14 kt METAR LFBO 221130Z AUTO 33014KT 290V350 CAVOK 12/M01 Q1021 TEMPO 33016G26KT
13:00
V
12 °C 10 km+ - 340° 340° 12 kt METAR LFBO 221100Z AUTO 34012KT 310V010 CAVOK 12/M02 Q1021 TEMPO 33016G26KT
12:30
V
12 °C 10 km+ - 340° 340° 11 - 24 kt METAR LFBO 221030Z AUTO 34011G24KT 300V020 CAVOK 12/M02 Q1022 NOSIG
12:00
V
11 °C 10 km+ - 330° 330° 12 kt METAR LFBO 221000Z AUTO 33012KT 290V360 CAVOK 11/M01 Q1022 NOSIG
11:30
V
11 °C 10 km+ - 320° 320° 12 kt METAR LFBO 220930Z AUTO 32012KT 300V360 CAVOK 11/M01 Q1022 NOSIG
11:00
V
9 °C 10 km+ - 310° 310° 14 kt METAR LFBO 220900Z AUTO 31014KT CAVOK 09/M00 Q1022 NOSIG
10:30
V
9 °C 10 km+ - 320° 320° 11 kt METAR LFBO 220830Z AUTO 32011KT CAVOK 09/00 Q1022 NOSIG
10:00
V
8 °C 10 km+ - 320° 320° 11 kt METAR LFBO 220800Z AUTO 32011KT CAVOK 08/01 Q1022 NOSIG
09:30
V
7 °C 10 km+ - 330° 330° 10 kt METAR LFBO 220730Z AUTO 33010KT 300V010 CAVOK 07/00 Q1022 NOSIG
09:00
V
6 °C 10 km+ - 310° 310° 12 kt METAR LFBO 220700Z AUTO 31012KT CAVOK 06/00 Q1022 NOSIG
08:30
V
5 °C 10 km+ - 320° 320° 12 kt METAR LFBO 220630Z AUTO 32012KT CAVOK 05/M00 Q1022 NOSIG
08:00
V
5 °C 10 km+ - 320° 320° 10 kt METAR LFBO 220600Z AUTO 32010KT CAVOK 05/M00 Q1022 NOSIG
Signaler les modifications